sensor_id;sensor_type;location;lat;lon;timestamp;temperature;humidity
20714;DHT22;10518;50.742;4.226;2023-09-19T00:00:16;17.00;99.90
20714;DHT22;10518;50.742;4.226;2023-09-19T00:02:46;17.00;99.90
20714;DHT22;10518;50.742;4.226;2023-09-19T00:05:12;17.00;99.90
20714;DHT22;10518;50.742;4.226;2023-09-19T00:07:38;17.00;99.90
20714;DHT22;10518;50.742;4.226;2023-09-19T00:10:04;17.10;99.90
20714;DHT22;10518;50.742;4.226;2023-09-19T00:12:30;17.00;99.90
20714;DHT22;10518;50.742;4.226;2023-09-19T00:14:55;17.00;99.90
20714;DHT22;10518;50.742;4.226;2023-09-19T00:17:22;16.90;99.90
20714;DHT22;10518;50.742;4.226;2023-09-19T00:19:47;16.80;99.90
20714;DHT22;10518;50.742;4.226;2023-09-19T00:22:14;17.00;99.90
20714;DHT22;10518;50.742;4.226;2023-09-19T00:24:41;16.90;99.90
20714;DHT22;10518;50.742;4.226;2023-09-19T00:27:06;16.70;99.90
20714;DHT22;10518;50.742;4.226;2023-09-19T00:29:33;16.70;99.90
20714;DHT22;10518;50.742;4.226;2023-09-19T00:31:59;16.90;99.90
20714;DHT22;10518;50.742;4.226;2023-09-19T00:34:24;16.80;99.90
20714;DHT22;10518;50.742;4.226;2023-09-19T00:36:51;16.80;99.90
20714;DHT22;10518;50.742;4.226;2023-09-19T00:39:19;16.90;99.90
20714;DHT22;10518;50.742;4.226;2023-09-19T00:41:45;16.80;99.90
20714;DHT22;10518;50.742;4.226;2023-09-19T00:44:11;16.70;99.90
20714;DHT22;10518;50.742;4.226;2023-09-19T00:46:37;16.70;99.90
20714;DHT22;10518;50.742;4.226;2023-09-19T00:49:03;16.70;99.90
20714;DHT22;10518;50.742;4.226;2023-09-19T00:51:28;16.60;99.90
20714;DHT22;10518;50.742;4.226;2023-09-19T00:53:55;16.70;99.90
20714;DHT22;10518;50.742;4.226;2023-09-19T00:56:21;16.70;99.90
20714;DHT22;10518;50.742;4.226;2023-09-19T00:58:47;16.70;99.90
20714;DHT22;10518;50.742;4.226;2023-09-19T01:01:13;16.90;99.90
20714;DHT22;10518;50.742;4.226;2023-09-19T01:03:41;16.80;99.90
20714;DHT22;10518;50.742;4.226;2023-09-19T01:06:07;16.60;99.90
20714;DHT22;10518;50.742;4.226;2023-09-19T01:08:36;16.60;99.90
20714;DHT22;10518;50.742;4.226;2023-09-19T01:11:28;16.50;99.90
20714;DHT22;10518;50.742;4.226;2023-09-19T01:16:50;16.50;99.90
20714;DHT22;10518;50.742;4.226;2023-09-19T01:22:26;16.50;99.90
20714;DHT22;10518;50.742;4.226;2023-09-19T01:25:37;16.40;99.90
20714;DHT22;10518;50.742;4.226;2023-09-19T01:28:05;16.50;99.90
20714;DHT22;10518;50.742;4.226;2023-09-19T01:30:35;16.50;99.90
20714;DHT22;10518;50.742;4.226;2023-09-19T01:33:06;16.50;99.90
20714;DHT22;10518;50.742;4.226;2023-09-19T01:35:32;16.40;99.90
20714;DHT22;10518;50.742;4.226;2023-09-19T01:37:59;16.40;99.90
20714;DHT22;10518;50.742;4.226;2023-09-19T01:40:25;16.20;99.90
20714;DHT22;10518;50.742;4.226;2023-09-19T01:48:29;16.40;99.90
20714;DHT22;10518;50.742;4.226;2023-09-19T01:51:05;16.30;99.90
20714;DHT22;10518;50.742;4.226;2023-09-19T01:53:55;16.30;99.90
20714;DHT22;10518;50.742;4.226;2023-09-19T01:56:35;16.20;99.90
20714;DHT22;10518;50.742;4.226;2023-09-19T01:59:21;16.20;99.90
20714;DHT22;10518;50.742;4.226;2023-09-19T02:01:49;16.20;99.90
20714;DHT22;10518;50.742;4.226;2023-09-19T02:04:16;16.20;99.90
20714;DHT22;10518;50.742;4.226;2023-09-19T02:06:42;16.20;99.90
20714;DHT22;10518;50.742;4.226;2023-09-19T02:09:07;16.30;99.90
20714;DHT22;10518;50.742;4.226;2023-09-19T02:11:34;16.20;99.90
20714;DHT22;10518;50.742;4.226;2023-09-19T02:14:00;16.30;99.90
20714;DHT22;10518;50.742;4.226;2023-09-19T02:16:26;16.20;99.90
20714;DHT22;10518;50.742;4.226;2023-09-19T02:18:52;16.10;99.90
20714;DHT22;10518;50.742;4.226;2023-09-19T02:21:18;16.10;99.90
20714;DHT22;10518;50.742;4.226;2023-09-19T02:23:46;16.20;99.90
20714;DHT22;10518;50.742;4.226;2023-09-19T02:26:15;16.30;99.90
20714;DHT22;10518;50.742;4.226;2023-09-19T02:28:42;16.40;99.90
20714;DHT22;10518;50.742;4.226;2023-09-19T02:31:07;16.50;99.90
20714;DHT22;10518;50.742;4.226;2023-09-19T02:33:33;16.30;99.90
20714;DHT22;10518;50.742;4.226;2023-09-19T02:35:59;16.30;99.90
20714;DHT22;10518;50.742;4.226;2023-09-19T02:38:25;16.70;99.90
20714;DHT22;10518;50.742;4.226;2023-09-19T02:40:54;16.90;99.90
20714;DHT22;10518;50.742;4.226;2023-09-19T02:43:23;16.90;99.90
20714;DHT22;10518;50.742;4.226;2023-09-19T02:45:49;16.90;99.90
20714;DHT22;10518;50.742;4.226;2023-09-19T02:48:16;16.70;99.90
20714;DHT22;10518;50.742;4.226;2023-09-19T02:50:42;16.70;99.90
20714;DHT22;10518;50.742;4.226;2023-09-19T02:53:08;16.70;99.90
20714;DHT22;10518;50.742;4.226;2023-09-19T02:55:34;16.60;99.90
20714;DHT22;10518;50.742;4.226;2023-09-19T02:58:00;16.40;99.90
20714;DHT22;10518;50.742;4.226;2023-09-19T03:00:27;16.50;99.90
20714;DHT22;10518;50.742;4.226;2023-09-19T03:02:54;16.60;99.90
20714;DHT22;10518;50.742;4.226;2023-09-19T03:05:21;16.80;99.90
20714;DHT22;10518;50.742;4.226;2023-09-19T03:07:47;16.50;99.90
20714;DHT22;10518;50.742;4.226;2023-09-19T03:10:17;16.40;99.90
20714;DHT22;10518;50.742;4.226;2023-09-19T03:12:43;16.20;99.90
20714;DHT22;10518;50.742;4.226;2023-09-19T03:15:09;16.20;99.90
20714;DHT22;10518;50.742;4.226;2023-09-19T03:17:34;16.20;99.90
20714;DHT22;10518;50.742;4.226;2023-09-19T03:20:01;16.30;99.90
20714;DHT22;10518;50.742;4.226;2023-09-19T03:22:27;16.40;99.90
20714;DHT22;10518;50.742;4.226;2023-09-19T03:24:53;16.40;99.90
20714;DHT22;10518;50.742;4.226;2023-09-19T03:27:19;16.50;99.90
20714;DHT22;10518;50.742;4.226;2023-09-19T03:29:46;16.70;99.90
20714;DHT22;10518;50.742;4.226;2023-09-19T03:32:12;16.60;99.90
20714;DHT22;10518;50.742;4.226;2023-09-19T03:34:38;16.50;99.90
20714;DHT22;10518;50.742;4.226;2023-09-19T03:37:11;16.40;99.90
20714;DHT22;10518;50.742;4.226;2023-09-19T03:39:37;16.40;99.90
20714;DHT22;10518;50.742;4.226;2023-09-19T03:42:03;16.30;99.90
20714;DHT22;10518;50.742;4.226;2023-09-19T03:44:30;16.30;99.90
20714;DHT22;10518;50.742;4.226;2023-09-19T03:46:56;16.20;99.90
20714;DHT22;10518;50.742;4.226;2023-09-19T03:49:22;16.40;99.90
20714;DHT22;10518;50.742;4.226;2023-09-19T03:51:47;16.20;99.90
20714;DHT22;10518;50.742;4.226;2023-09-19T03:54:13;16.20;99.90
20714;DHT22;10518;50.742;4.226;2023-09-19T03:56:39;16.20;99.90
20714;DHT22;10518;50.742;4.226;2023-09-19T03:59:04;16.00;99.90
20714;DHT22;10518;50.742;4.226;2023-09-19T04:01:30;16.00;99.90
20714;DHT22;10518;50.742;4.226;2023-09-19T04:03:58;16.00;99.90
20714;DHT22;10518;50.742;4.226;2023-09-19T04:06:24;16.10;99.90
20714;DHT22;10518;50.742;4.226;2023-09-19T04:08:49;16.20;99.90
20714;DHT22;10518;50.742;4.226;2023-09-19T04:11:15;16.30;99.90
20714;DHT22;10518;50.742;4.226;2023-09-19T04:13:41;16.30;99.90
20714;DHT22;10518;50.742;4.226;2023-09-19T04:16:06;16.20;99.90
20714;DHT22;10518;50.742;4.226;2023-09-19T04:18:33;16.20;99.90
20714;DHT22;10518;50.742;4.226;2023-09-19T04:21:02;16.10;99.90
20714;DHT22;10518;50.742;4.226;2023-09-19T04:23:29;16.10;99.90
20714;DHT22;10518;50.742;4.226;2023-09-19T04:25:55;16.00;99.90
20714;DHT22;10518;50.742;4.226;2023-09-19T04:28:21;15.90;99.90
20714;DHT22;10518;50.742;4.226;2023-09-19T04:30:46;15.90;99.90
20714;DHT22;10518;50.742;4.226;2023-09-19T04:33:12;15.90;99.90
20714;DHT22;10518;50.742;4.226;2023-09-19T04:35:40;16.00;99.90
20714;DHT22;10518;50.742;4.226;2023-09-19T04:38:08;16.10;99.90
20714;DHT22;10518;50.742;4.226;2023-09-19T04:40:34;16.10;99.90
20714;DHT22;10518;50.742;4.226;2023-09-19T04:43:00;15.90;99.90
20714;DHT22;10518;50.742;4.226;2023-09-19T04:45:26;16.00;99.90
20714;DHT22;10518;50.742;4.226;2023-09-19T04:47:52;16.00;99.90
20714;DHT22;10518;50.742;4.226;2023-09-19T04:50:18;16.10;99.90
20714;DHT22;10518;50.742;4.226;2023-09-19T04:52:45;16.10;99.90
20714;DHT22;10518;50.742;4.226;2023-09-19T04:55:11;15.90;99.90
20714;DHT22;10518;50.742;4.226;2023-09-19T04:57:42;16.00;99.90
20714;DHT22;10518;50.742;4.226;2023-09-19T05:00:08;15.90;99.90
20714;DHT22;10518;50.742;4.226;2023-09-19T05:02:38;15.90;99.90
20714;DHT22;10518;50.742;4.226;2023-09-19T05:05:04;15.80;99.90
20714;DHT22;10518;50.742;4.226;2023-09-19T05:07:30;15.70;99.90
20714;DHT22;10518;50.742;4.226;2023-09-19T05:09:56;15.50;99.90
20714;DHT22;10518;50.742;4.226;2023-09-19T05:12:21;15.60;99.90
20714;DHT22;10518;50.742;4.226;2023-09-19T05:14:47;15.50;99.90
20714;DHT22;10518;50.742;4.226;2023-09-19T05:17:13;15.60;99.90
20714;DHT22;10518;50.742;4.226;2023-09-19T05:19:40;15.60;99.90
20714;DHT22;10518;50.742;4.226;2023-09-19T05:22:06;15.40;99.90
20714;DHT22;10518;50.742;4.226;2023-09-19T05:24:32;15.40;99.90
20714;DHT22;10518;50.742;4.226;2023-09-19T05:26:57;15.40;99.90
20714;DHT22;10518;50.742;4.226;2023-09-19T05:29:23;15.40;99.90
20714;DHT22;10518;50.742;4.226;2023-09-19T05:31:49;15.30;99.90
20714;DHT22;10518;50.742;4.226;2023-09-19T05:34:15;15.40;99.90
20714;DHT22;10518;50.742;4.226;2023-09-19T05:36:40;15.60;99.90
20714;DHT22;10518;50.742;4.226;2023-09-19T05:39:07;15.70;99.90
20714;DHT22;10518;50.742;4.226;2023-09-19T05:41:35;15.70;99.90
20714;DHT22;10518;50.742;4.226;2023-09-19T05:44:05;15.90;99.90
20714;DHT22;10518;50.742;4.226;2023-09-19T05:46:32;16.00;99.90
20714;DHT22;10518;50.742;4.226;2023-09-19T05:48:58;15.80;99.90
20714;DHT22;10518;50.742;4.226;2023-09-19T05:51:24;15.90;99.90
20714;DHT22;10518;50.742;4.226;2023-09-19T05:53:50;16.10;99.90
20714;DHT22;10518;50.742;4.226;2023-09-19T05:56:17;15.90;99.90
20714;DHT22;10518;50.742;4.226;2023-09-19T05:58:44;16.00;99.90
20714;DHT22;10518;50.742;4.226;2023-09-19T06:01:10;15.90;99.90
20714;DHT22;10518;50.742;4.226;2023-09-19T06:03:36;15.90;99.90
20714;DHT22;10518;50.742;4.226;2023-09-19T06:06:02;15.90;99.90
20714;DHT22;10518;50.742;4.226;2023-09-19T06:08:28;15.80;99.90
20714;DHT22;10518;50.742;4.226;2023-09-19T06:10:54;15.80;99.90
20714;DHT22;10518;50.742;4.226;2023-09-19T06:13:19;16.10;99.90
20714;DHT22;10518;50.742;4.226;2023-09-19T06:15:46;16.10;99.90
20714;DHT22;10518;50.742;4.226;2023-09-19T06:18:15;16.10;99.90
20714;DHT22;10518;50.742;4.226;2023-09-19T06:20:48;16.00;99.90
20714;DHT22;10518;50.742;4.226;2023-09-19T06:23:14;16.00;99.90
20714;DHT22;10518;50.742;4.226;2023-09-19T06:25:40;16.20;99.90
20714;DHT22;10518;50.742;4.226;2023-09-19T06:28:06;16.30;99.90
20714;DHT22;10518;50.742;4.226;2023-09-19T06:30:33;16.30;99.90
20714;DHT22;10518;50.742;4.226;2023-09-19T06:33:00;16.40;99.90
20714;DHT22;10518;50.742;4.226;2023-09-19T06:35:27;16.50;99.90
20714;DHT22;10518;50.742;4.226;2023-09-19T06:37:54;16.30;99.90
20714;DHT22;10518;50.742;4.226;2023-09-19T06:40:23;16.20;99.90
20714;DHT22;10518;50.742;4.226;2023-09-19T06:42:53;16.10;99.90
20714;DHT22;10518;50.742;4.226;2023-09-19T06:45:19;16.50;99.90
20714;DHT22;10518;50.742;4.226;2023-09-19T06:47:48;16.60;99.90
20714;DHT22;10518;50.742;4.226;2023-09-19T06:50:18;16.50;99.90
20714;DHT22;10518;50.742;4.226;2023-09-19T06:52:45;16.40;99.90
20714;DHT22;10518;50.742;4.226;2023-09-19T06:55:14;16.40;99.90
20714;DHT22;10518;50.742;4.226;2023-09-19T06:57:42;16.50;99.90
20714;DHT22;10518;50.742;4.226;2023-09-19T07:00:10;16.70;99.90
20714;DHT22;10518;50.742;4.226;2023-09-19T07:02:54;16.80;99.90
20714;DHT22;10518;50.742;4.226;2023-09-19T07:05:20;17.10;99.90
20714;DHT22;10518;50.742;4.226;2023-09-19T07:07:47;17.20;99.90
20714;DHT22;10518;50.742;4.226;2023-09-19T07:10:12;17.10;99.90
20714;DHT22;10518;50.742;4.226;2023-09-19T07:12:38;17.20;99.90
20714;DHT22;10518;50.742;4.226;2023-09-19T07:15:04;17.50;99.90
20714;DHT22;10518;50.742;4.226;2023-09-19T07:17:31;17.60;99.90
20714;DHT22;10518;50.742;4.226;2023-09-19T07:19:58;17.50;99.90
20714;DHT22;10518;50.742;4.226;2023-09-19T07:22:25;17.80;99.90
20714;DHT22;10518;50.742;4.226;2023-09-19T07:24:51;17.90;99.90
20714;DHT22;10518;50.742;4.226;2023-09-19T07:27:17;18.00;99.90
20714;DHT22;10518;50.742;4.226;2023-09-19T07:29:43;18.30;99.90
20714;DHT22;10518;50.742;4.226;2023-09-19T07:32:10;18.30;99.90
20714;DHT22;10518;50.742;4.226;2023-09-19T07:34:37;18.20;99.90
20714;DHT22;10518;50.742;4.226;2023-09-19T07:37:06;18.10;99.90
20714;DHT22;10518;50.742;4.226;2023-09-19T07:39:31;17.80;99.90
20714;DHT22;10518;50.742;4.226;2023-09-19T07:41:57;18.10;99.90
20714;DHT22;10518;50.742;4.226;2023-09-19T07:44:23;18.10;99.90
20714;DHT22;10518;50.742;4.226;2023-09-19T07:46:51;18.00;99.90
20714;DHT22;10518;50.742;4.226;2023-09-19T07:49:17;18.00;99.90
20714;DHT22;10518;50.742;4.226;2023-09-19T07:51:43;18.00;99.90
20714;DHT22;10518;50.742;4.226;2023-09-19T07:54:12;18.40;99.90
20714;DHT22;10518;50.742;4.226;2023-09-19T07:56:38;18.20;99.90
20714;DHT22;10518;50.742;4.226;2023-09-19T07:59:03;18.10;99.90
20714;DHT22;10518;50.742;4.226;2023-09-19T08:01:29;18.00;99.90
20714;DHT22;10518;50.742;4.226;2023-09-19T08:03:55;17.90;99.90
20714;DHT22;10518;50.742;4.226;2023-09-19T08:06:20;18.00;99.90
20714;DHT22;10518;50.742;4.226;2023-09-19T08:08:46;18.30;99.90
20714;DHT22;10518;50.742;4.226;2023-09-19T08:11:11;18.50;99.90
20714;DHT22;10518;50.742;4.226;2023-09-19T08:13:41;18.40;99.90
20714;DHT22;10518;50.742;4.226;2023-09-19T08:16:12;18.40;99.90
20714;DHT22;10518;50.742;4.226;2023-09-19T08:18:40;18.50;99.90
20714;DHT22;10518;50.742;4.226;2023-09-19T08:21:07;18.70;99.90
20714;DHT22;10518;50.742;4.226;2023-09-19T08:23:38;18.60;99.90
20714;DHT22;10518;50.742;4.226;2023-09-19T08:26:05;18.80;99.90
20714;DHT22;10518;50.742;4.226;2023-09-19T08:28:34;18.70;99.90
20714;DHT22;10518;50.742;4.226;2023-09-19T08:31:04;18.50;99.90
20714;DHT22;10518;50.742;4.226;2023-09-19T08:33:34;18.60;99.90
20714;DHT22;10518;50.742;4.226;2023-09-19T08:36:01;18.50;99.90
20714;DHT22;10518;50.742;4.226;2023-09-19T08:38:33;18.70;99.90
20714;DHT22;10518;50.742;4.226;2023-09-19T08:41:06;18.70;99.90
20714;DHT22;10518;50.742;4.226;2023-09-19T08:43:32;19.00;99.90
20714;DHT22;10518;50.742;4.226;2023-09-19T08:46:14;19.10;99.90
20714;DHT22;10518;50.742;4.226;2023-09-19T08:49:01;19.10;99.90
20714;DHT22;10518;50.742;4.226;2023-09-19T08:51:41;19.20;99.90
20714;DHT22;10518;50.742;4.226;2023-09-19T08:54:19;19.20;99.90
20714;DHT22;10518;50.742;4.226;2023-09-19T08:56:47;19.40;99.90
20714;DHT22;10518;50.742;4.226;2023-09-19T08:59:13;19.40;99.90
20714;DHT22;10518;50.742;4.226;2023-09-19T09:01:40;19.40;99.90
20714;DHT22;10518;50.742;4.226;2023-09-19T09:04:09;19.70;99.90
20714;DHT22;10518;50.742;4.226;2023-09-19T09:06:34;19.70;99.90
20714;DHT22;10518;50.742;4.226;2023-09-19T09:09:02;19.90;99.90
20714;DHT22;10518;50.742;4.226;2023-09-19T09:11:28;19.90;99.90
20714;DHT22;10518;50.742;4.226;2023-09-19T09:13:54;19.80;99.90
20714;DHT22;10518;50.742;4.226;2023-09-19T09:16:19;19.90;99.90
20714;DHT22;10518;50.742;4.226;2023-09-19T09:18:46;20.10;99.90
20714;DHT22;10518;50.742;4.226;2023-09-19T09:21:18;20.00;99.90
20714;DHT22;10518;50.742;4.226;2023-09-19T09:23:43;19.90;99.90
20714;DHT22;10518;50.742;4.226;2023-09-19T09:26:09;20.00;99.90
20714;DHT22;10518;50.742;4.226;2023-09-19T09:28:35;20.20;99.90
20714;DHT22;10518;50.742;4.226;2023-09-19T09:31:02;20.10;99.90
20714;DHT22;10518;50.742;4.226;2023-09-19T09:33:33;20.30;99.90
20714;DHT22;10518;50.742;4.226;2023-09-19T09:36:00;20.20;99.90
20714;DHT22;10518;50.742;4.226;2023-09-19T09:38:29;20.10;99.90
20714;DHT22;10518;50.742;4.226;2023-09-19T09:40:58;20.40;99.90
20714;DHT22;10518;50.742;4.226;2023-09-19T09:43:39;20.40;99.90
20714;DHT22;10518;50.742;4.226;2023-09-19T09:46:19;20.50;99.90
20714;DHT22;10518;50.742;4.226;2023-09-19T09:49:02;20.40;99.90
20714;DHT22;10518;50.742;4.226;2023-09-19T09:51:48;20.60;99.90
20714;DHT22;10518;50.742;4.226;2023-09-19T09:54:23;20.30;99.90
20714;DHT22;10518;50.742;4.226;2023-09-19T09:56:57;20.40;99.90
20714;DHT22;10518;50.742;4.226;2023-09-19T10:02:26;19.90;99.90
20714;DHT22;10518;50.742;4.226;2023-09-19T10:04:58;20.00;99.90
20714;DHT22;10518;50.742;4.226;2023-09-19T10:07:32;20.00;99.90
20714;DHT22;10518;50.742;4.226;2023-09-19T10:10:05;20.10;99.90
20714;DHT22;10518;50.742;4.226;2023-09-19T10:12:49;20.20;99.90
20714;DHT22;10518;50.742;4.226;2023-09-19T10:15:17;20.20;99.90
20714;DHT22;10518;50.742;4.226;2023-09-19T10:17:46;20.00;99.90
20714;DHT22;10518;50.742;4.226;2023-09-19T10:20:14;20.10;99.90
20714;DHT22;10518;50.742;4.226;2023-09-19T10:23:08;20.10;99.90
20714;DHT22;10518;50.742;4.226;2023-09-19T10:25:43;20.30;99.90
20714;DHT22;10518;50.742;4.226;2023-09-19T10:28:12;20.60;99.90
20714;DHT22;10518;50.742;4.226;2023-09-19T10:30:43;20.50;99.90
20714;DHT22;10518;50.742;4.226;2023-09-19T10:33:17;20.50;99.90
20714;DHT22;10518;50.742;4.226;2023-09-19T10:35:44;20.50;99.90
20714;DHT22;10518;50.742;4.226;2023-09-19T10:38:12;20.60;99.90
20714;DHT22;10518;50.742;4.226;2023-09-19T10:40:38;20.60;99.90
20714;DHT22;10518;50.742;4.226;2023-09-19T10:43:21;20.50;99.90
20714;DHT22;10518;50.742;4.226;2023-09-19T10:45:48;20.50;99.90
20714;DHT22;10518;50.742;4.226;2023-09-19T10:48:15;20.40;99.90
20714;DHT22;10518;50.742;4.226;2023-09-19T10:50:51;20.50;99.90
20714;DHT22;10518;50.742;4.226;2023-09-19T10:53:18;20.50;99.90
20714;DHT22;10518;50.742;4.226;2023-09-19T10:55:59;20.40;99.90
20714;DHT22;10518;50.742;4.226;2023-09-19T10:58:29;20.30;99.90
20714;DHT22;10518;50.742;4.226;2023-09-19T11:01:00;20.40;99.90
20714;DHT22;10518;50.742;4.226;2023-09-19T11:03:32;20.80;99.90
20714;DHT22;10518;50.742;4.226;2023-09-19T11:06:09;20.80;99.90
20714;DHT22;10518;50.742;4.226;2023-09-19T11:09:01;20.80;99.90
20714;DHT22;10518;50.742;4.226;2023-09-19T11:11:40;21.00;99.90
20714;DHT22;10518;50.742;4.226;2023-09-19T11:30:39;21.20;99.90
20714;DHT22;10518;50.742;4.226;2023-09-19T11:33:20;21.50;99.90
20714;DHT22;10518;50.742;4.226;2023-09-19T11:36:01;21.80;99.90
20714;DHT22;10518;50.742;4.226;2023-09-19T11:43:53;21.70;99.90
20714;DHT22;10518;50.742;4.226;2023-09-19T11:46:21;22.00;99.90
20714;DHT22;10518;50.742;4.226;2023-09-19T11:48:51;21.60;99.90
20714;DHT22;10518;50.742;4.226;2023-09-19T11:51:21;21.60;99.90
20714;DHT22;10518;50.742;4.226;2023-09-19T11:53:57;21.50;99.90
20714;DHT22;10518;50.742;4.226;2023-09-19T11:56:26;21.80;99.90
20714;DHT22;10518;50.742;4.226;2023-09-19T11:58:57;21.90;99.90
20714;DHT22;10518;50.742;4.226;2023-09-19T12:01:30;21.90;99.90
20714;DHT22;10518;50.742;4.226;2023-09-19T12:03:58;22.00;99.90
20714;DHT22;10518;50.742;4.226;2023-09-19T12:06:29;21.90;99.90
20714;DHT22;10518;50.742;4.226;2023-09-19T12:08:55;21.90;99.90
20714;DHT22;10518;50.742;4.226;2023-09-19T12:11:23;21.90;99.90
20714;DHT22;10518;50.742;4.226;2023-09-19T12:13:50;21.80;99.90
20714;DHT22;10518;50.742;4.226;2023-09-19T12:16:18;21.80;99.90
20714;DHT22;10518;50.742;4.226;2023-09-19T12:18:47;21.90;99.90
20714;DHT22;10518;50.742;4.226;2023-09-19T12:21:29;21.90;99.90
20714;DHT22;10518;50.742;4.226;2023-09-19T12:26:44;22.10;99.90
20714;DHT22;10518;50.742;4.226;2023-09-19T12:29:17;22.20;99.90
20714;DHT22;10518;50.742;4.226;2023-09-19T12:31:53;22.20;99.90
20714;DHT22;10518;50.742;4.226;2023-09-19T12:34:30;22.20;99.90
20714;DHT22;10518;50.742;4.226;2023-09-19T12:42:04;21.80;99.90
20714;DHT22;10518;50.742;4.226;2023-09-19T12:44:35;21.80;99.90
20714;DHT22;10518;50.742;4.226;2023-09-19T12:47:15;22.00;99.90
20714;DHT22;10518;50.742;4.226;2023-09-19T12:50:14;21.70;99.90
20714;DHT22;10518;50.742;4.226;2023-09-19T12:52:49;21.80;99.90
20714;DHT22;10518;50.742;4.226;2023-09-19T12:55:29;21.60;99.90
20714;DHT22;10518;50.742;4.226;2023-09-19T13:00:35;21.60;99.90
20714;DHT22;10518;50.742;4.226;2023-09-19T13:16:21;21.80;99.90
20714;DHT22;10518;50.742;4.226;2023-09-19T13:18:54;21.80;99.90
20714;DHT22;10518;50.742;4.226;2023-09-19T13:21:48;21.90;99.90
20714;DHT22;10518;50.742;4.226;2023-09-19T13:24:23;22.10;99.90
20714;DHT22;10518;50.742;4.226;2023-09-19T13:26:51;22.10;99.90
20714;DHT22;10518;50.742;4.226;2023-09-19T13:29:17;22.10;99.90
20714;DHT22;10518;50.742;4.226;2023-09-19T13:31:51;22.10;99.90
20714;DHT22;10518;50.742;4.226;2023-09-19T13:34:19;22.20;99.90
20714;DHT22;10518;50.742;4.226;2023-09-19T13:36:45;22.00;99.90
20714;DHT22;10518;50.742;4.226;2023-09-19T13:39:14;22.20;99.90
20714;DHT22;10518;50.742;4.226;2023-09-19T13:41:40;22.30;99.90
20714;DHT22;10518;50.742;4.226;2023-09-19T13:44:08;22.60;99.90
20714;DHT22;10518;50.742;4.226;2023-09-19T13:46:36;22.70;99.90
20714;DHT22;10518;50.742;4.226;2023-09-19T13:49:02;22.70;99.90
20714;DHT22;10518;50.742;4.226;2023-09-19T13:51:30;22.70;99.90
20714;DHT22;10518;50.742;4.226;2023-09-19T13:53:56;22.90;99.90
20714;DHT22;10518;50.742;4.226;2023-09-19T13:56:21;22.80;99.90
20714;DHT22;10518;50.742;4.226;2023-09-19T13:58:47;22.70;99.90
20714;DHT22;10518;50.742;4.226;2023-09-19T14:01:13;22.60;99.90
20714;DHT22;10518;50.742;4.226;2023-09-19T14:03:42;22.60;99.90
20714;DHT22;10518;50.742;4.226;2023-09-19T14:06:12;22.50;99.90
20714;DHT22;10518;50.742;4.226;2023-09-19T14:08:38;22.50;99.90
20714;DHT22;10518;50.742;4.226;2023-09-19T14:11:07;22.30;99.90
20714;DHT22;10518;50.742;4.226;2023-09-19T14:13:33;22.20;99.90
20714;DHT22;10518;50.742;4.226;2023-09-19T14:16:06;22.40;99.90
20714;DHT22;10518;50.742;4.226;2023-09-19T14:18:32;22.40;99.90
20714;DHT22;10518;50.742;4.226;2023-09-19T14:20:58;22.20;99.90
20714;DHT22;10518;50.742;4.226;2023-09-19T14:23:28;22.30;99.90
20714;DHT22;10518;50.742;4.226;2023-09-19T14:25:54;22.30;99.90
20714;DHT22;10518;50.742;4.226;2023-09-19T14:28:19;22.30;99.90
20714;DHT22;10518;50.742;4.226;2023-09-19T14:30:45;22.20;99.90
20714;DHT22;10518;50.742;4.226;2023-09-19T14:33:11;22.30;99.90
20714;DHT22;10518;50.742;4.226;2023-09-19T14:35:37;22.50;99.90
20714;DHT22;10518;50.742;4.226;2023-09-19T14:38:04;22.50;99.90
20714;DHT22;10518;50.742;4.226;2023-09-19T14:40:29;22.50;99.90
20714;DHT22;10518;50.742;4.226;2023-09-19T14:42:55;22.50;99.90
20714;DHT22;10518;50.742;4.226;2023-09-19T14:45:20;22.60;99.90
20714;DHT22;10518;50.742;4.226;2023-09-19T14:47:46;22.40;99.90
20714;DHT22;10518;50.742;4.226;2023-09-19T14:50:12;22.50;99.90
20714;DHT22;10518;50.742;4.226;2023-09-19T14:52:38;22.10;99.90
20714;DHT22;10518;50.742;4.226;2023-09-19T14:55:06;21.90;99.90
20714;DHT22;10518;50.742;4.226;2023-09-19T14:57:32;21.60;99.90
20714;DHT22;10518;50.742;4.226;2023-09-19T14:59:58;21.80;99.90
20714;DHT22;10518;50.742;4.226;2023-09-19T15:02:24;21.90;99.90
20714;DHT22;10518;50.742;4.226;2023-09-19T15:04:52;22.00;99.90
20714;DHT22;10518;50.742;4.226;2023-09-19T15:07:18;21.70;99.90
20714;DHT22;10518;50.742;4.226;2023-09-19T15:09:43;21.60;99.90
20714;DHT22;10518;50.742;4.226;2023-09-19T15:12:09;21.50;99.90
20714;DHT22;10518;50.742;4.226;2023-09-19T15:14:40;21.50;99.90
20714;DHT22;10518;50.742;4.226;2023-09-19T15:17:06;21.50;99.90
20714;DHT22;10518;50.742;4.226;2023-09-19T15:19:31;21.30;99.90
20714;DHT22;10518;50.742;4.226;2023-09-19T15:21:57;21.50;99.90
20714;DHT22;10518;50.742;4.226;2023-09-19T15:24:23;21.40;99.90
20714;DHT22;10518;50.742;4.226;2023-09-19T15:26:52;21.40;99.90
20714;DHT22;10518;50.742;4.226;2023-09-19T15:29:17;21.60;99.90
20714;DHT22;10518;50.742;4.226;2023-09-19T15:31:43;21.40;99.90
20714;DHT22;10518;50.742;4.226;2023-09-19T15:34:09;21.20;99.90
20714;DHT22;10518;50.742;4.226;2023-09-19T15:36:34;21.20;99.90
20714;DHT22;10518;50.742;4.226;2023-09-19T15:39:04;21.40;99.90
20714;DHT22;10518;50.742;4.226;2023-09-19T15:41:35;21.50;99.90
20714;DHT22;10518;50.742;4.226;2023-09-19T15:44:03;21.40;99.90
20714;DHT22;10518;50.742;4.226;2023-09-19T15:46:30;21.30;99.90
20714;DHT22;10518;50.742;4.226;2023-09-19T15:48:57;21.40;99.90
20714;DHT22;10518;50.742;4.226;2023-09-19T15:51:23;21.40;99.90
20714;DHT22;10518;50.742;4.226;2023-09-19T15:53:51;21.40;99.90
20714;DHT22;10518;50.742;4.226;2023-09-19T15:56:18;21.40;99.90
20714;DHT22;10518;50.742;4.226;2023-09-19T15:58:47;21.40;99.90
20714;DHT22;10518;50.742;4.226;2023-09-19T16:01:14;21.40;99.90
20714;DHT22;10518;50.742;4.226;2023-09-19T16:03:45;21.30;99.90
20714;DHT22;10518;50.742;4.226;2023-09-19T16:06:16;21.40;99.90
20714;DHT22;10518;50.742;4.226;2023-09-19T16:08:50;21.30;99.90
20714;DHT22;10518;50.742;4.226;2023-09-19T16:11:17;21.30;99.90
20714;DHT22;10518;50.742;4.226;2023-09-19T16:13:45;21.30;99.90
20714;DHT22;10518;50.742;4.226;2023-09-19T16:16:12;21.30;99.90
20714;DHT22;10518;50.742;4.226;2023-09-19T16:18:39;21.20;99.90
20714;DHT22;10518;50.742;4.226;2023-09-19T16:21:06;20.90;99.90
20714;DHT22;10518;50.742;4.226;2023-09-19T16:23:36;21.00;99.90
20714;DHT22;10518;50.742;4.226;2023-09-19T16:26:07;21.00;99.90
20714;DHT22;10518;50.742;4.226;2023-09-19T16:28:35;20.90;99.90
20714;DHT22;10518;50.742;4.226;2023-09-19T16:31:07;21.00;99.90
20714;DHT22;10518;50.742;4.226;2023-09-19T16:33:33;21.00;99.90
20714;DHT22;10518;50.742;4.226;2023-09-19T16:36:00;20.90;99.90
20714;DHT22;10518;50.742;4.226;2023-09-19T16:38:27;20.90;99.90